sensor_id;sensor_type;location;lat;lon;timestamp;P1;durP1;ratioP1;P2;durP2;ratioP2
13408;SDS011;6775;49.574;11.170;2023-08-20T00:00:50;6.70;;;4.90;;
13408;SDS011;6775;49.574;11.170;2023-08-20T00:03:19;6.37;;;4.73;;
13408;SDS011;6775;49.574;11.170;2023-08-20T00:05:49;5.17;;;4.37;;
13408;SDS011;6775;49.574;11.170;2023-08-20T00:08:17;5.77;;;4.73;;
13408;SDS011;6775;49.574;11.170;2023-08-20T00:10:45;5.27;;;4.70;;
13408;SDS011;6775;49.574;11.170;2023-08-20T00:13:14;5.40;;;4.40;;
13408;SDS011;6775;49.574;11.170;2023-08-20T00:15:43;5.77;;;4.60;;
13408;SDS011;6775;49.574;11.170;2023-08-20T00:18:12;4.80;;;4.40;;
13408;SDS011;6775;49.574;11.170;2023-08-20T00:20:42;4.53;;;4.13;;
13408;SDS011;6775;49.574;11.170;2023-08-20T00:23:12;4.40;;;4.00;;
13408;SDS011;6775;49.574;11.170;2023-08-20T00:25:41;5.03;;;4.33;;
13408;SDS011;6775;49.574;11.170;2023-08-20T00:28:11;5.63;;;4.70;;
13408;SDS011;6775;49.574;11.170;2023-08-20T00:30:39;6.17;;;5.57;;
13408;SDS011;6775;49.574;11.170;2023-08-20T00:33:08;6.50;;;5.70;;
13408;SDS011;6775;49.574;11.170;2023-08-20T00:35:37;5.37;;;4.83;;
13408;SDS011;6775;49.574;11.170;2023-08-20T00:38:05;7.13;;;5.03;;
13408;SDS011;6775;49.574;11.170;2023-08-20T00:40:33;7.30;;;5.43;;
13408;SDS011;6775;49.574;11.170;2023-08-20T00:43:01;5.50;;;5.00;;
13408;SDS011;6775;49.574;11.170;2023-08-20T00:45:29;7.20;;;4.83;;
13408;SDS011;6775;49.574;11.170;2023-08-20T00:47:58;6.40;;;5.80;;
13408;SDS011;6775;49.574;11.170;2023-08-20T00:50:28;9.00;;;6.17;;
13408;SDS011;6775;49.574;11.170;2023-08-20T00:52:56;6.13;;;5.47;;
13408;SDS011;6775;49.574;11.170;2023-08-20T00:55:24;6.27;;;5.13;;
13408;SDS011;6775;49.574;11.170;2023-08-20T00:57:52;5.63;;;5.13;;
13408;SDS011;6775;49.574;11.170;2023-08-20T01:00:20;5.97;;;5.40;;
13408;SDS011;6775;49.574;11.170;2023-08-20T01:02:50;6.47;;;5.30;;
13408;SDS011;6775;49.574;11.170;2023-08-20T01:05:18;5.83;;;5.33;;
13408;SDS011;6775;49.574;11.170;2023-08-20T01:07:52;5.10;;;4.60;;
13408;SDS011;6775;49.574;11.170;2023-08-20T01:10:36;5.50;;;5.00;;
13408;SDS011;6775;49.574;11.170;2023-08-20T01:13:17;6.20;;;5.40;;
13408;SDS011;6775;49.574;11.170;2023-08-20T01:15:46;5.50;;;5.00;;
13408;SDS011;6775;49.574;11.170;2023-08-20T01:18:14;5.43;;;4.93;;
13408;SDS011;6775;49.574;11.170;2023-08-20T01:20:45;6.03;;;5.13;;
13408;SDS011;6775;49.574;11.170;2023-08-20T01:23:41;5.10;;;4.70;;
13408;SDS011;6775;49.574;11.170;2023-08-20T01:26:35;4.50;;;4.10;;
13408;SDS011;6775;49.574;11.170;2023-08-20T01:29:23;5.47;;;5.07;;
13408;SDS011;6775;49.574;11.170;2023-08-20T01:31:53;5.97;;;5.20;;
13408;SDS011;6775;49.574;11.170;2023-08-20T01:34:22;5.13;;;4.73;;
13408;SDS011;6775;49.574;11.170;2023-08-20T01:36:50;5.60;;;5.03;;
13408;SDS011;6775;49.574;11.170;2023-08-20T01:39:18;5.27;;;4.77;;
13408;SDS011;6775;49.574;11.170;2023-08-20T01:41:46;5.33;;;4.93;;
13408;SDS011;6775;49.574;11.170;2023-08-20T01:44:14;5.80;;;5.30;;
13408;SDS011;6775;49.574;11.170;2023-08-20T01:46:44;7.00;;;5.43;;
13408;SDS011;6775;49.574;11.170;2023-08-20T01:49:12;5.40;;;5.00;;
13408;SDS011;6775;49.574;11.170;2023-08-20T01:51:40;5.60;;;5.20;;
13408;SDS011;6775;49.574;11.170;2023-08-20T01:54:08;6.00;;;5.20;;
13408;SDS011;6775;49.574;11.170;2023-08-20T01:56:36;7.00;;;5.67;;
13408;SDS011;6775;49.574;11.170;2023-08-20T01:59:04;5.73;;;5.13;;
13408;SDS011;6775;49.574;11.170;2023-08-20T02:01:32;6.50;;;5.40;;
13408;SDS011;6775;49.574;11.170;2023-08-20T02:04:02;5.27;;;4.77;;
13408;SDS011;6775;49.574;11.170;2023-08-20T02:06:30;6.70;;;5.43;;
13408;SDS011;6775;49.574;11.170;2023-08-20T02:08:58;6.53;;;5.87;;
13408;SDS011;6775;49.574;11.170;2023-08-20T02:11:28;6.00;;;5.50;;
13408;SDS011;6775;49.574;11.170;2023-08-20T02:13:59;6.67;;;5.97;;
13408;SDS011;6775;49.574;11.170;2023-08-20T02:16:27;6.87;;;5.67;;
13408;SDS011;6775;49.574;11.170;2023-08-20T02:18:55;7.13;;;5.73;;
13408;SDS011;6775;49.574;11.170;2023-08-20T02:21:25;8.30;;;6.07;;
13408;SDS011;6775;49.574;11.170;2023-08-20T02:23:53;7.80;;;6.07;;
13408;SDS011;6775;49.574;11.170;2023-08-20T02:26:21;6.30;;;5.70;;
13408;SDS011;6775;49.574;11.170;2023-08-20T02:28:49;6.77;;;5.83;;
13408;SDS011;6775;49.574;11.170;2023-08-20T02:31:17;7.00;;;6.33;;
13408;SDS011;6775;49.574;11.170;2023-08-20T02:33:46;6.93;;;6.10;;
13408;SDS011;6775;49.574;11.170;2023-08-20T02:36:14;6.23;;;5.23;;
13408;SDS011;6775;49.574;11.170;2023-08-20T02:38:44;5.80;;;5.20;;
13408;SDS011;6775;49.574;11.170;2023-08-20T02:41:13;9.07;;;6.00;;
13408;SDS011;6775;49.574;11.170;2023-08-20T02:43:41;5.67;;;5.10;;
13408;SDS011;6775;49.574;11.170;2023-08-20T02:46:09;5.90;;;5.40;;
13408;SDS011;6775;49.574;11.170;2023-08-20T02:48:37;5.97;;;5.47;;
13408;SDS011;6775;49.574;11.170;2023-08-20T02:51:05;5.67;;;5.17;;
13408;SDS011;6775;49.574;11.170;2023-08-20T02:53:34;5.80;;;5.17;;
13408;SDS011;6775;49.574;11.170;2023-08-20T02:56:03;8.40;;;6.23;;
13408;SDS011;6775;49.574;11.170;2023-08-20T02:58:31;7.83;;;5.93;;
13408;SDS011;6775;49.574;11.170;2023-08-20T03:00:59;6.63;;;5.93;;
13408;SDS011;6775;49.574;11.170;2023-08-20T03:03:28;6.93;;;5.80;;
13408;SDS011;6775;49.574;11.170;2023-08-20T03:05:56;8.97;;;5.97;;
13408;SDS011;6775;49.574;11.170;2023-08-20T03:08:24;6.27;;;5.70;;
13408;SDS011;6775;49.574;11.170;2023-08-20T03:10:52;5.90;;;5.20;;
13408;SDS011;6775;49.574;11.170;2023-08-20T03:13:22;5.93;;;5.33;;
13408;SDS011;6775;49.574;11.170;2023-08-20T03:15:50;6.33;;;5.73;;
13408;SDS011;6775;49.574;11.170;2023-08-20T03:18:18;6.40;;;5.07;;
13408;SDS011;6775;49.574;11.170;2023-08-20T03:20:46;5.37;;;4.87;;
13408;SDS011;6775;49.574;11.170;2023-08-20T03:23:14;6.10;;;5.50;;
13408;SDS011;6775;49.574;11.170;2023-08-20T03:25:43;5.33;;;4.83;;
13408;SDS011;6775;49.574;11.170;2023-08-20T03:28:11;5.73;;;5.23;;
13408;SDS011;6775;49.574;11.170;2023-08-20T03:30:40;6.17;;;5.57;;
13408;SDS011;6775;49.574;11.170;2023-08-20T03:33:08;5.60;;;5.10;;
13408;SDS011;6775;49.574;11.170;2023-08-20T03:35:37;6.33;;;5.70;;
13408;SDS011;6775;49.574;11.170;2023-08-20T03:38:06;6.03;;;5.50;;
13408;SDS011;6775;49.574;11.170;2023-08-20T03:40:34;5.37;;;4.87;;
13408;SDS011;6775;49.574;11.170;2023-08-20T03:43:02;5.83;;;5.33;;
13408;SDS011;6775;49.574;11.170;2023-08-20T03:45:31;6.03;;;5.43;;
13408;SDS011;6775;49.574;11.170;2023-08-20T03:48:00;6.30;;;5.40;;
13408;SDS011;6775;49.574;11.170;2023-08-20T03:50:28;5.87;;;5.37;;
13408;SDS011;6775;49.574;11.170;2023-08-20T03:52:57;6.53;;;5.70;;
13408;SDS011;6775;49.574;11.170;2023-08-20T03:55:25;6.27;;;5.73;;
13408;SDS011;6775;49.574;11.170;2023-08-20T03:57:53;5.60;;;5.10;;
13408;SDS011;6775;49.574;11.170;2023-08-20T04:00:21;6.87;;;5.77;;
13408;SDS011;6775;49.574;11.170;2023-08-20T04:02:49;6.70;;;5.40;;
13408;SDS011;6775;49.574;11.170;2023-08-20T04:05:19;6.20;;;5.67;;
13408;SDS011;6775;49.574;11.170;2023-08-20T04:07:47;5.70;;;5.20;;
13408;SDS011;6775;49.574;11.170;2023-08-20T04:10:15;6.60;;;5.47;;
13408;SDS011;6775;49.574;11.170;2023-08-20T04:12:44;5.47;;;4.97;;
13408;SDS011;6775;49.574;11.170;2023-08-20T04:15:12;6.03;;;5.30;;
13408;SDS011;6775;49.574;11.170;2023-08-20T04:17:40;5.90;;;5.40;;
13408;SDS011;6775;49.574;11.170;2023-08-20T04:20:09;5.77;;;5.27;;
13408;SDS011;6775;49.574;11.170;2023-08-20T04:22:39;7.23;;;6.37;;
13408;SDS011;6775;49.574;11.170;2023-08-20T04:25:08;6.53;;;5.73;;
13408;SDS011;6775;49.574;11.170;2023-08-20T04:27:39;6.67;;;5.67;;
13408;SDS011;6775;49.574;11.170;2023-08-20T04:30:07;7.27;;;6.37;;
13408;SDS011;6775;49.574;11.170;2023-08-20T04:32:37;5.53;;;5.10;;
13408;SDS011;6775;49.574;11.170;2023-08-20T04:35:05;6.07;;;5.53;;
13408;SDS011;6775;49.574;11.170;2023-08-20T04:37:34;5.47;;;4.97;;
13408;SDS011;6775;49.574;11.170;2023-08-20T04:40:04;5.70;;;5.17;;
13408;SDS011;6775;49.574;11.170;2023-08-20T04:42:35;6.43;;;5.83;;
13408;SDS011;6775;49.574;11.170;2023-08-20T04:45:03;5.63;;;5.10;;
13408;SDS011;6775;49.574;11.170;2023-08-20T04:47:33;6.47;;;5.87;;
13408;SDS011;6775;49.574;11.170;2023-08-20T04:50:02;6.43;;;5.93;;
13408;SDS011;6775;49.574;11.170;2023-08-20T04:52:32;7.13;;;6.33;;
13408;SDS011;6775;49.574;11.170;2023-08-20T04:55:01;6.47;;;5.63;;
13408;SDS011;6775;49.574;11.170;2023-08-20T04:57:32;5.37;;;4.80;;
13408;SDS011;6775;49.574;11.170;2023-08-20T05:00:01;6.03;;;5.47;;
13408;SDS011;6775;49.574;11.170;2023-08-20T05:02:31;6.80;;;6.20;;
13408;SDS011;6775;49.574;11.170;2023-08-20T05:05:00;7.40;;;6.23;;
13408;SDS011;6775;49.574;11.170;2023-08-20T05:07:29;6.47;;;5.87;;
13408;SDS011;6775;49.574;11.170;2023-08-20T05:09:57;5.40;;;4.87;;
13408;SDS011;6775;49.574;11.170;2023-08-20T05:12:26;5.67;;;5.10;;
13408;SDS011;6775;49.574;11.170;2023-08-20T05:14:55;6.27;;;5.57;;
13408;SDS011;6775;49.574;11.170;2023-08-20T05:17:23;6.47;;;5.87;;
13408;SDS011;6775;49.574;11.170;2023-08-20T05:19:51;6.13;;;5.53;;
13408;SDS011;6775;49.574;11.170;2023-08-20T05:22:19;6.23;;;5.30;;
13408;SDS011;6775;49.574;11.170;2023-08-20T05:24:47;8.27;;;6.00;;
13408;SDS011;6775;49.574;11.170;2023-08-20T05:27:16;7.13;;;5.90;;
13408;SDS011;6775;49.574;11.170;2023-08-20T05:29:46;7.00;;;6.30;;
13408;SDS011;6775;49.574;11.170;2023-08-20T05:32:14;6.60;;;6.00;;
13408;SDS011;6775;49.574;11.170;2023-08-20T05:34:42;5.50;;;5.00;;
13408;SDS011;6775;49.574;11.170;2023-08-20T05:37:11;6.27;;;5.50;;
13408;SDS011;6775;49.574;11.170;2023-08-20T05:39:40;6.53;;;5.83;;
13408;SDS011;6775;49.574;11.170;2023-08-20T05:42:10;5.70;;;5.20;;
13408;SDS011;6775;49.574;11.170;2023-08-20T05:44:38;5.47;;;5.07;;
13408;SDS011;6775;49.574;11.170;2023-08-20T05:47:08;6.07;;;5.57;;
13408;SDS011;6775;49.574;11.170;2023-08-20T05:49:36;5.60;;;5.10;;
13408;SDS011;6775;49.574;11.170;2023-08-20T05:52:04;5.27;;;4.87;;
13408;SDS011;6775;49.574;11.170;2023-08-20T05:54:33;4.63;;;4.27;;
13408;SDS011;6775;49.574;11.170;2023-08-20T05:57:01;4.80;;;4.40;;
13408;SDS011;6775;49.574;11.170;2023-08-20T05:59:29;5.53;;;5.00;;
13408;SDS011;6775;49.574;11.170;2023-08-20T06:01:57;5.20;;;4.80;;
13408;SDS011;6775;49.574;11.170;2023-08-20T06:04:27;5.27;;;4.77;;
13408;SDS011;6775;49.574;11.170;2023-08-20T06:06:55;4.37;;;4.00;;
13408;SDS011;6775;49.574;11.170;2023-08-20T06:09:23;4.67;;;4.27;;
13408;SDS011;6775;49.574;11.170;2023-08-20T06:11:51;5.13;;;4.73;;
13408;SDS011;6775;49.574;11.170;2023-08-20T06:14:19;4.40;;;4.10;;
13408;SDS011;6775;49.574;11.170;2023-08-20T06:16:48;4.60;;;4.20;;
13408;SDS011;6775;49.574;11.170;2023-08-20T06:19:16;5.93;;;5.03;;
13408;SDS011;6775;49.574;11.170;2023-08-20T06:21:45;4.90;;;4.50;;
13408;SDS011;6775;49.574;11.170;2023-08-20T06:24:13;6.17;;;5.57;;
13408;SDS011;6775;49.574;11.170;2023-08-20T06:26:42;6.47;;;5.87;;
13408;SDS011;6775;49.574;11.170;2023-08-20T06:29:10;6.37;;;5.87;;
13408;SDS011;6775;49.574;11.170;2023-08-20T06:31:38;6.27;;;5.67;;
13408;SDS011;6775;49.574;11.170;2023-08-20T06:34:06;6.03;;;5.50;;
13408;SDS011;6775;49.574;11.170;2023-08-20T06:36:35;5.93;;;5.20;;
13408;SDS011;6775;49.574;11.170;2023-08-20T06:39:04;5.93;;;5.40;;
13408;SDS011;6775;49.574;11.170;2023-08-20T06:41:33;6.53;;;5.67;;
13408;SDS011;6775;49.574;11.170;2023-08-20T06:44:01;7.27;;;5.70;;
13408;SDS011;6775;49.574;11.170;2023-08-20T06:46:30;6.37;;;5.77;;
13408;SDS011;6775;49.574;11.170;2023-08-20T06:48:58;5.90;;;5.40;;
13408;SDS011;6775;49.574;11.170;2023-08-20T06:51:26;5.80;;;5.30;;
13408;SDS011;6775;49.574;11.170;2023-08-20T06:53:55;5.50;;;5.10;;
13408;SDS011;6775;49.574;11.170;2023-08-20T06:56:25;5.37;;;4.87;;
13408;SDS011;6775;49.574;11.170;2023-08-20T06:58:53;5.23;;;4.80;;
13408;SDS011;6775;49.574;11.170;2023-08-20T07:01:21;5.00;;;4.20;;
13408;SDS011;6775;49.574;11.170;2023-08-20T07:03:49;5.13;;;4.63;;
13408;SDS011;6775;49.574;11.170;2023-08-20T07:06:17;4.20;;;3.90;;
13408;SDS011;6775;49.574;11.170;2023-08-20T07:08:46;5.70;;;5.10;;
13408;SDS011;6775;49.574;11.170;2023-08-20T07:11:14;5.50;;;5.00;;
13408;SDS011;6775;49.574;11.170;2023-08-20T07:13:43;4.93;;;4.53;;
13408;SDS011;6775;49.574;11.170;2023-08-20T07:16:12;5.30;;;4.83;;
13408;SDS011;6775;49.574;11.170;2023-08-20T07:18:40;5.10;;;4.60;;
13408;SDS011;6775;49.574;11.170;2023-08-20T07:21:08;5.10;;;4.60;;
13408;SDS011;6775;49.574;11.170;2023-08-20T07:23:36;6.77;;;6.10;;
13408;SDS011;6775;49.574;11.170;2023-08-20T07:26:05;5.93;;;5.40;;
13408;SDS011;6775;49.574;11.170;2023-08-20T07:28:35;6.33;;;5.83;;
13408;SDS011;6775;49.574;11.170;2023-08-20T07:31:28;5.10;;;4.63;;
13408;SDS011;6775;49.574;11.170;2023-08-20T07:33:58;6.60;;;5.90;;
13408;SDS011;6775;49.574;11.170;2023-08-20T07:36:31;5.27;;;4.83;;
13408;SDS011;6775;49.574;11.170;2023-08-20T07:39:00;5.90;;;5.40;;
13408;SDS011;6775;49.574;11.170;2023-08-20T07:41:29;4.90;;;4.50;;
13408;SDS011;6775;49.574;11.170;2023-08-20T07:43:57;5.23;;;4.73;;
13408;SDS011;6775;49.574;11.170;2023-08-20T07:46:25;5.57;;;5.07;;
13408;SDS011;6775;49.574;11.170;2023-08-20T07:48:55;5.17;;;4.67;;
13408;SDS011;6775;49.574;11.170;2023-08-20T07:51:23;5.40;;;4.90;;
13408;SDS011;6775;49.574;11.170;2023-08-20T07:53:51;4.90;;;4.50;;
13408;SDS011;6775;49.574;11.170;2023-08-20T07:56:19;4.70;;;4.30;;
13408;SDS011;6775;49.574;11.170;2023-08-20T07:58:47;4.80;;;4.40;;
13408;SDS011;6775;49.574;11.170;2023-08-20T08:01:16;4.73;;;4.27;;
13408;SDS011;6775;49.574;11.170;2023-08-20T08:03:45;4.60;;;4.20;;
13408;SDS011;6775;49.574;11.170;2023-08-20T08:06:15;4.73;;;4.40;;
13408;SDS011;6775;49.574;11.170;2023-08-20T08:08:44;5.73;;;5.23;;
13408;SDS011;6775;49.574;11.170;2023-08-20T08:11:12;6.97;;;5.40;;
13408;SDS011;6775;49.574;11.170;2023-08-20T08:13:40;5.40;;;5.00;;
13408;SDS011;6775;49.574;11.170;2023-08-20T08:16:09;5.83;;;5.30;;
13408;SDS011;6775;49.574;11.170;2023-08-20T08:18:37;5.97;;;5.47;;
13408;SDS011;6775;49.574;11.170;2023-08-20T08:21:07;5.33;;;4.93;;
13408;SDS011;6775;49.574;11.170;2023-08-20T08:23:35;5.83;;;5.33;;
13408;SDS011;6775;49.574;11.170;2023-08-20T08:26:03;5.63;;;5.13;;
13408;SDS011;6775;49.574;11.170;2023-08-20T08:28:31;5.90;;;5.40;;
13408;SDS011;6775;49.574;11.170;2023-08-20T08:30:59;6.27;;;5.33;;
13408;SDS011;6775;49.574;11.170;2023-08-20T08:33:28;5.13;;;4.63;;
13408;SDS011;6775;49.574;11.170;2023-08-20T08:35:56;4.80;;;4.40;;
13408;SDS011;6775;49.574;11.170;2023-08-20T08:38:26;5.50;;;5.10;;
13408;SDS011;6775;49.574;11.170;2023-08-20T08:40:54;5.37;;;4.93;;
13408;SDS011;6775;49.574;11.170;2023-08-20T08:43:23;5.93;;;5.43;;
13408;SDS011;6775;49.574;11.170;2023-08-20T08:45:53;5.20;;;4.70;;
13408;SDS011;6775;49.574;11.170;2023-08-20T08:48:24;5.53;;;5.13;;
13408;SDS011;6775;49.574;11.170;2023-08-20T08:50:53;5.60;;;5.20;;
13408;SDS011;6775;49.574;11.170;2023-08-20T08:53:22;5.60;;;5.10;;
13408;SDS011;6775;49.574;11.170;2023-08-20T08:55:54;5.57;;;5.07;;
13408;SDS011;6775;49.574;11.170;2023-08-20T08:58:22;4.50;;;4.10;;
13408;SDS011;6775;49.574;11.170;2023-08-20T09:00:50;4.43;;;4.13;;
13408;SDS011;6775;49.574;11.170;2023-08-20T09:03:18;5.00;;;4.60;;
13408;SDS011;6775;49.574;11.170;2023-08-20T09:05:47;4.30;;;4.00;;
13408;SDS011;6775;49.574;11.170;2023-08-20T09:08:19;4.73;;;4.33;;
13408;SDS011;6775;49.574;11.170;2023-08-20T09:10:51;4.10;;;3.80;;
13408;SDS011;6775;49.574;11.170;2023-08-20T09:13:24;4.30;;;4.00;;
13408;SDS011;6775;49.574;11.170;2023-08-20T09:15:53;4.87;;;4.47;;
13408;SDS011;6775;49.574;11.170;2023-08-20T09:18:21;4.20;;;3.90;;
13408;SDS011;6775;49.574;11.170;2023-08-20T09:20:50;4.10;;;3.80;;
13408;SDS011;6775;49.574;11.170;2023-08-20T09:23:18;4.37;;;3.97;;
13408;SDS011;6775;49.574;11.170;2023-08-20T09:25:46;4.37;;;3.97;;
13408;SDS011;6775;49.574;11.170;2023-08-20T09:28:16;3.37;;;3.13;;
13408;SDS011;6775;49.574;11.170;2023-08-20T09:30:59;3.90;;;3.60;;
13408;SDS011;6775;49.574;11.170;2023-08-20T09:33:29;4.00;;;3.70;;
13408;SDS011;6775;49.574;11.170;2023-08-20T09:35:57;3.77;;;3.47;;
13408;SDS011;6775;49.574;11.170;2023-08-20T09:38:25;3.80;;;3.50;;
13408;SDS011;6775;49.574;11.170;2023-08-20T09:40:54;4.00;;;3.60;;
13408;SDS011;6775;49.574;11.170;2023-08-20T09:43:25;3.80;;;3.40;;
13408;SDS011;6775;49.574;11.170;2023-08-20T09:45:58;4.10;;;3.70;;
13408;SDS011;6775;49.574;11.170;2023-08-20T09:48:32;5.07;;;4.30;;
13408;SDS011;6775;49.574;11.170;2023-08-20T09:51:04;5.07;;;4.57;;
13408;SDS011;6775;49.574;11.170;2023-08-20T09:53:39;5.03;;;4.60;;
13408;SDS011;6775;49.574;11.170;2023-08-20T09:56:20;4.30;;;3.90;;
13408;SDS011;6775;49.574;11.170;2023-08-20T09:58:55;4.00;;;3.70;;
13408;SDS011;6775;49.574;11.170;2023-08-20T10:01:25;4.40;;;4.10;;
13408;SDS011;6775;49.574;11.170;2023-08-20T10:03:55;4.00;;;3.70;;
13408;SDS011;6775;49.574;11.170;2023-08-20T10:06:24;3.97;;;3.57;;
13408;SDS011;6775;49.574;11.170;2023-08-20T10:08:53;3.20;;;3.00;;
13408;SDS011;6775;49.574;11.170;2023-08-20T10:11:22;3.97;;;3.57;;
13408;SDS011;6775;49.574;11.170;2023-08-20T10:13:50;3.83;;;3.53;;
13408;SDS011;6775;49.574;11.170;2023-08-20T10:16:19;3.53;;;3.33;;
13408;SDS011;6775;49.574;11.170;2023-08-20T10:18:50;5.87;;;4.67;;
13408;SDS011;6775;49.574;11.170;2023-08-20T10:21:23;4.73;;;4.33;;
13408;SDS011;6775;49.574;11.170;2023-08-20T10:23:52;4.87;;;4.23;;
13408;SDS011;6775;49.574;11.170;2023-08-20T10:26:20;4.63;;;4.10;;
13408;SDS011;6775;49.574;11.170;2023-08-20T10:28:50;5.73;;;4.03;;
13408;SDS011;6775;49.574;11.170;2023-08-20T10:31:20;4.73;;;4.23;;
13408;SDS011;6775;49.574;11.170;2023-08-20T10:33:54;4.33;;;3.93;;
13408;SDS011;6775;49.574;11.170;2023-08-20T10:36:23;4.53;;;4.10;;
13408;SDS011;6775;49.574;11.170;2023-08-20T10:38:55;4.27;;;3.97;;
13408;SDS011;6775;49.574;11.170;2023-08-20T10:41:24;4.43;;;3.73;;
13408;SDS011;6775;49.574;11.170;2023-08-20T10:43:54;4.20;;;3.80;;
13408;SDS011;6775;49.574;11.170;2023-08-20T10:46:28;3.90;;;3.53;;
13408;SDS011;6775;49.574;11.170;2023-08-20T10:48:57;3.90;;;3.47;;
13408;SDS011;6775;49.574;11.170;2023-08-20T10:51:29;3.80;;;3.50;;
13408;SDS011;6775;49.574;11.170;2023-08-20T10:54:04;3.63;;;3.33;;
13408;SDS011;6775;49.574;11.170;2023-08-20T10:56:37;3.97;;;3.67;;
13408;SDS011;6775;49.574;11.170;2023-08-20T10:59:08;8.30;;;4.70;;
13408;SDS011;6775;49.574;11.170;2023-08-20T11:01:44;6.07;;;3.90;;
13408;SDS011;6775;49.574;11.170;2023-08-20T11:04:14;6.27;;;3.70;;
13408;SDS011;6775;49.574;11.170;2023-08-20T11:06:44;4.33;;;3.60;;
13408;SDS011;6775;49.574;11.170;2023-08-20T11:09:13;3.77;;;3.47;;
13408;SDS011;6775;49.574;11.170;2023-08-20T11:11:41;3.80;;;3.50;;
13408;SDS011;6775;49.574;11.170;2023-08-20T11:14:11;4.10;;;3.73;;
13408;SDS011;6775;49.574;11.170;2023-08-20T11:16:42;7.67;;;3.70;;
13408;SDS011;6775;49.574;11.170;2023-08-20T11:19:12;4.67;;;3.80;;
13408;SDS011;6775;49.574;11.170;2023-08-20T11:21:41;5.70;;;4.00;;
13408;SDS011;6775;49.574;11.170;2023-08-20T11:24:10;5.57;;;3.43;;
13408;SDS011;6775;49.574;11.170;2023-08-20T11:26:40;5.00;;;3.67;;
13408;SDS011;6775;49.574;11.170;2023-08-20T11:29:10;3.87;;;3.57;;
13408;SDS011;6775;49.574;11.170;2023-08-20T11:31:40;4.60;;;3.60;;
13408;SDS011;6775;49.574;11.170;2023-08-20T11:34:11;3.83;;;3.43;;
13408;SDS011;6775;49.574;11.170;2023-08-20T11:36:40;3.93;;;3.57;;
13408;SDS011;6775;49.574;11.170;2023-08-20T11:39:09;3.10;;;2.90;;
13408;SDS011;6775;49.574;11.170;2023-08-20T11:41:37;3.10;;;2.90;;
13408;SDS011;6775;49.574;11.170;2023-08-20T11:44:08;3.47;;;3.10;;
13408;SDS011;6775;49.574;11.170;2023-08-20T11:46:41;3.30;;;3.10;;
13408;SDS011;6775;49.574;11.170;2023-08-20T11:49:12;4.13;;;3.73;;
13408;SDS011;6775;49.574;11.170;2023-08-20T11:51:41;4.17;;;3.67;;
13408;SDS011;6775;49.574;11.170;2023-08-20T11:54:12;4.03;;;3.33;;
13408;SDS011;6775;49.574;11.170;2023-08-20T11:56:43;3.90;;;3.60;;
13408;SDS011;6775;49.574;11.170;2023-08-20T11:59:13;3.80;;;3.50;;
13408;SDS011;6775;49.574;11.170;2023-08-20T12:01:50;6.37;;;3.87;;
13408;SDS011;6775;49.574;11.170;2023-08-20T12:04:23;6.03;;;4.00;;
13408;SDS011;6775;49.574;11.170;2023-08-20T12:07:01;4.27;;;3.87;;
13408;SDS011;6775;49.574;11.170;2023-08-20T12:09:31;4.50;;;4.10;;
13408;SDS011;6775;49.574;11.170;2023-08-20T12:12:00;3.77;;;3.40;;
13408;SDS011;6775;49.574;11.170;2023-08-20T12:14:30;5.77;;;3.90;;
13408;SDS011;6775;49.574;11.170;2023-08-20T12:16:58;4.20;;;3.80;;
13408;SDS011;6775;49.574;11.170;2023-08-20T12:19:27;4.37;;;3.50;;
13408;SDS011;6775;49.574;11.170;2023-08-20T12:21:55;4.13;;;3.63;;
13408;SDS011;6775;49.574;11.170;2023-08-20T12:24:23;4.37;;;3.97;;
13408;SDS011;6775;49.574;11.170;2023-08-20T12:26:52;4.30;;;3.40;;
13408;SDS011;6775;49.574;11.170;2023-08-20T12:29:21;5.77;;;3.60;;
13408;SDS011;6775;49.574;11.170;2023-08-20T12:31:49;4.93;;;3.53;;
13408;SDS011;6775;49.574;11.170;2023-08-20T12:34:18;3.93;;;3.60;;
13408;SDS011;6775;49.574;11.170;2023-08-20T12:36:49;4.47;;;3.43;;
13408;SDS011;6775;49.574;11.170;2023-08-20T12:39:18;4.67;;;3.80;;
13408;SDS011;6775;49.574;11.170;2023-08-20T12:41:46;4.50;;;3.90;;
13408;SDS011;6775;49.574;11.170;2023-08-20T12:44:16;3.97;;;3.60;;
13408;SDS011;6775;49.574;11.170;2023-08-20T12:46:44;3.63;;;3.33;;
13408;SDS011;6775;49.574;11.170;2023-08-20T12:49:13;3.80;;;3.40;;
13408;SDS011;6775;49.574;11.170;2023-08-20T12:51:41;3.33;;;3.13;;
13408;SDS011;6775;49.574;11.170;2023-08-20T12:54:11;4.93;;;3.20;;
13408;SDS011;6775;49.574;11.170;2023-08-20T12:56:39;4.27;;;3.30;;
13408;SDS011;6775;49.574;11.170;2023-08-20T12:59:07;4.47;;;3.73;;
13408;SDS011;6775;49.574;11.170;2023-08-20T13:01:35;5.23;;;3.73;;
13408;SDS011;6775;49.574;11.170;2023-08-20T13:04:04;4.10;;;3.80;;
13408;SDS011;6775;49.574;11.170;2023-08-20T13:06:33;3.50;;;3.20;;
13408;SDS011;6775;49.574;11.170;2023-08-20T13:09:03;5.93;;;3.80;;
13408;SDS011;6775;49.574;11.170;2023-08-20T13:11:34;5.10;;;4.43;;
13408;SDS011;6775;49.574;11.170;2023-08-20T13:14:06;3.87;;;3.57;;
13408;SDS011;6775;49.574;11.170;2023-08-20T13:16:35;4.50;;;4.00;;
13408;SDS011;6775;49.574;11.170;2023-08-20T13:19:05;4.40;;;4.00;;
13408;SDS011;6775;49.574;11.170;2023-08-20T13:21:34;4.37;;;3.93;;
13408;SDS011;6775;49.574;11.170;2023-08-20T13:24:02;4.00;;;3.70;;
13408;SDS011;6775;49.574;11.170;2023-08-20T13:26:31;4.47;;;4.07;;
13408;SDS011;6775;49.574;11.170;2023-08-20T13:29:01;4.77;;;4.10;;
13408;SDS011;6775;49.574;11.170;2023-08-20T13:31:29;4.80;;;4.30;;
13408;SDS011;6775;49.574;11.170;2023-08-20T13:33:57;4.60;;;4.20;;
13408;SDS011;6775;49.574;11.170;2023-08-20T13:36:26;3.73;;;3.43;;
13408;SDS011;6775;49.574;11.170;2023-08-20T13:38:54;3.50;;;3.20;;
13408;SDS011;6775;49.574;11.170;2023-08-20T13:41:22;3.57;;;3.27;;
13408;SDS011;6775;49.574;11.170;2023-08-20T13:43:50;6.70;;;4.43;;
13408;SDS011;6775;49.574;11.170;2023-08-20T13:46:21;4.60;;;4.30;;
13408;SDS011;6775;49.574;11.170;2023-08-20T13:48:49;4.30;;;3.90;;
13408;SDS011;6775;49.574;11.170;2023-08-20T13:51:17;4.00;;;3.70;;
13408;SDS011;6775;49.574;11.170;2023-08-20T13:53:45;4.10;;;3.47;;
13408;SDS011;6775;49.574;11.170;2023-08-20T13:56:13;4.07;;;3.67;;
13408;SDS011;6775;49.574;11.170;2023-08-20T13:58:41;3.63;;;3.33;;
13408;SDS011;6775;49.574;11.170;2023-08-20T14:01:10;3.80;;;3.50;;
13408;SDS011;6775;49.574;11.170;2023-08-20T14:03:41;5.33;;;4.60;;
13408;SDS011;6775;49.574;11.170;2023-08-20T14:06:09;5.23;;;4.47;;
13408;SDS011;6775;49.574;11.170;2023-08-20T14:08:37;5.10;;;4.60;;
13408;SDS011;6775;49.574;11.170;2023-08-20T14:11:05;5.00;;;4.43;;
13408;SDS011;6775;49.574;11.170;2023-08-20T14:13:33;4.83;;;4.27;;
13408;SDS011;6775;49.574;11.170;2023-08-20T14:16:02;4.37;;;3.93;;
13408;SDS011;6775;49.574;11.170;2023-08-20T14:18:30;6.00;;;4.60;;
13408;SDS011;6775;49.574;11.170;2023-08-20T14:21:00;4.93;;;4.40;;
13408;SDS011;6775;49.574;11.170;2023-08-20T14:23:29;5.67;;;4.00;;
13408;SDS011;6775;49.574;11.170;2023-08-20T14:25:57;4.30;;;4.00;;
13408;SDS011;6775;49.574;11.170;2023-08-20T14:28:25;4.20;;;3.80;;
13408;SDS011;6775;49.574;11.170;2023-08-20T14:30:53;4.07;;;3.67;;
13408;SDS011;6775;49.574;11.170;2023-08-20T14:33:22;4.40;;;4.00;;
13408;SDS011;6775;49.574;11.170;2023-08-20T14:35:50;4.13;;;3.73;;
13408;SDS011;6775;49.574;11.170;2023-08-20T14:38:19;4.13;;;3.63;;
13408;SDS011;6775;49.574;11.170;2023-08-20T14:40:48;4.13;;;3.83;;
13408;SDS011;6775;49.574;11.170;2023-08-20T14:43:16;4.53;;;3.80;;
13408;SDS011;6775;49.574;11.170;2023-08-20T14:45:45;4.20;;;3.80;;
13408;SDS011;6775;49.574;11.170;2023-08-20T14:48:13;4.13;;;3.47;;
13408;SDS011;6775;49.574;11.170;2023-08-20T14:50:41;3.73;;;3.43;;
13408;SDS011;6775;49.574;11.170;2023-08-20T14:53:09;3.90;;;3.50;;
13408;SDS011;6775;49.574;11.170;2023-08-20T14:55:39;3.60;;;3.30;;
13408;SDS011;6775;49.574;11.170;2023-08-20T14:58:07;4.23;;;3.83;;
13408;SDS011;6775;49.574;11.170;2023-08-20T15:00:35;4.40;;;4.00;;